Louisville International Standiford Field
KSDF : now visible

Airfield :











YOU CAN JOIN US ON...

 
LOGIN :

Register | Disclaimer

   EN    FR    IT 

 









Legend :    VFR   Marginal VFR   IFR   Intensive IFR   Very Intensive IFR
Visi :
Ceiling :
>= 8 km
>= 3000ft
5 to 8 km
1000 to 3000 ft
1500m to 5 km
500 to 1000 ft
800 to 1500m
200 to 500 ft
< 800m
< 200 ft
Symbols :   Thunderstorms  Fog  Heavy snow  Heavy precipitations  Wind > 20 kt






- Airport Elevation : 501 ft
- IATA code : SDF


KSDF - Louisville International Standiford Field

CURRENT METAR :
  • 211556Z 20012G18KT 10SM FEW040 FEW065 FEW300 29/19 A2993 RMK AO2 SLP128 T02940189

EXPIRED METARs :
  • 211456Z 22008G19KT 10SM FEW065 FEW300 28/19 A2993 RMK AO2 SLP128 T02830189 58004
  • 211356Z 20010KT 10SM FEW060 FEW300 27/18 A2994 RMK AO2 SLP132 T02670183
  • 211256Z 20007KT 10SM FEW090 FEW300 26/18 A2995 RMK AO2 SLP135 T02560178
  • 211156Z 12004KT 10SM FEW090 FEW300 22/17 A2994 RMK AO2 SLP132 T02220172 10233 20206 53010

TAF KSDF
Valid from the 21 at 12:00 until the 22 at 18:00 UTC


211120Z 2112/2218 14005KT P6SM SCT080 SCT250
FM211600 20011G21KT P6SM SCT050
FM220000 17008KT P6SM SCT250
KZID FIR / North America



MET'MAP, your aeronautical weather chart ! - Copyright ORBIFLY December 2007 - Disclaimer

ORBIFLY MET'MAP TEAM :

Programming & Development : Alexandra Zaïnal
Original concept : Baudouin d'Aumeries
Technical & hardware support : Manuel Goepfert
Assistance : Marc-Olivier Méhu




SOURCES & CREDITS :

   NOAA       Earth
Advisory